createdAt,value
2019-02-08T00:02:32.054Z,95606.09
2019-02-08T00:05:05.655Z,95604.12
2019-02-08T00:07:38.329Z,95609.48
2019-02-08T00:10:11.381Z,95610.18
2019-02-08T00:12:44.296Z,95617.92
2019-02-08T00:15:18.349Z,95614.98
2019-02-08T00:17:51.360Z,95609.52
2019-02-08T00:20:24.398Z,95615.89
2019-02-08T00:22:57.267Z,95613.20
2019-02-08T00:25:29.928Z,95616.55
2019-02-08T00:28:03.493Z,95622.23
2019-02-08T00:30:36.132Z,95608.78
2019-02-08T00:33:08.861Z,95616.95
2019-02-08T00:35:41.850Z,95605.81
2019-02-08T00:38:14.686Z,95597.44
2019-02-08T00:40:47.707Z,95601.67
2019-02-08T00:43:20.439Z,95599.88
2019-02-08T00:45:55.227Z,95597.70
2019-02-08T00:48:27.893Z,95592.09
2019-02-08T00:51:00.510Z,95587.39
2019-02-08T00:53:33.640Z,95587.47
2019-02-08T00:56:07.207Z,95582.97
2019-02-08T00:58:39.925Z,95590.27
2019-02-08T01:01:12.758Z,95586.55
2019-02-08T01:03:45.381Z,95585.61
2019-02-08T01:06:18.014Z,95585.28
2019-02-08T01:08:50.697Z,95575.95
2019-02-08T01:11:23.416Z,95577.29
2019-02-08T01:13:56.114Z,95586.48
2019-02-08T01:16:29.303Z,95587.00
2019-02-08T01:19:01.984Z,95594.53
2019-02-08T01:21:34.525Z,95597.11
2019-02-08T01:24:07.532Z,95588.73
2019-02-08T01:26:40.184Z,95585.44
2019-02-08T01:29:12.977Z,95582.36
2019-02-08T01:31:45.800Z,95587.52
2019-02-08T01:34:18.421Z,95591.89
2019-02-08T01:36:51.076Z,95590.66
2019-02-08T01:39:23.741Z,95591.58
2019-02-08T01:41:56.405Z,95591.27
2019-02-08T01:44:29.210Z,95590.52
2019-02-08T01:47:02.026Z,95577.03
2019-02-08T01:49:34.679Z,95583.92
2019-02-08T01:52:07.423Z,95577.63
2019-02-08T01:54:40.053Z,95576.85
2019-02-08T01:57:12.747Z,95581.30
2019-02-08T01:59:45.384Z,95581.84
2019-02-08T02:02:18.090Z,95579.11
2019-02-08T02:04:50.707Z,95582.00
2019-02-08T02:07:23.302Z,95582.58
2019-02-08T02:09:56.077Z,95580.30
2019-02-08T02:12:28.744Z,95582.97
2019-02-08T02:15:01.410Z,95585.41
2019-02-08T02:17:33.985Z,95575.20
2019-02-08T02:20:08.880Z,95580.70
2019-02-08T02:22:41.443Z,95576.71
2019-02-08T02:25:15.046Z,95572.33
2019-02-08T02:27:47.681Z,95579.67
2019-02-08T02:30:27.341Z,95577.23
2019-02-08T02:33:00.078Z,95579.42
2019-02-08T02:35:33.054Z,95572.71
2019-02-08T02:38:05.954Z,95569.55
2019-02-08T02:40:38.503Z,95570.41
2019-02-08T02:43:11.591Z,95560.91
2019-02-08T02:45:44.790Z,95570.85
2019-02-08T02:48:17.339Z,95568.11
2019-02-08T02:50:50.049Z,95567.31
2019-02-08T02:53:22.931Z,95561.56
2019-02-08T02:55:55.515Z,95557.87
2019-02-08T02:58:28.274Z,95562.03
2019-02-08T03:01:00.840Z,95554.76
2019-02-08T03:03:33.574Z,95551.05
2019-02-08T03:06:06.377Z,95561.27
2019-02-08T03:08:39.724Z,95563.70
2019-02-08T03:11:12.572Z,95565.85
2019-02-08T03:13:45.274Z,95563.61
2019-02-08T03:16:17.921Z,95569.94
2019-02-08T03:18:50.661Z,95558.32
2019-02-08T03:21:23.325Z,95572.44
2019-02-08T03:23:56.113Z,95569.38
2019-02-08T03:26:28.726Z,95572.80
2019-02-08T03:29:01.367Z,95564.67
2019-02-08T03:31:34.002Z,95559.28
2019-02-08T03:34:06.196Z,95565.20
2019-02-08T03:36:38.751Z,95558.19
2019-02-08T03:39:11.435Z,95553.73
2019-02-08T03:41:44.128Z,95547.90
2019-02-08T03:50:41.024Z,95543.30
2019-02-08T03:53:14.074Z,95546.41
2019-02-08T03:55:46.669Z,95557.39
2019-02-08T03:58:19.334Z,95547.55
2019-02-08T04:00:59.903Z,95544.85
2019-02-08T04:03:32.586Z,95543.70
2019-02-08T04:06:06.515Z,95539.03
2019-02-08T04:08:42.523Z,95541.12
2019-02-08T04:11:15.729Z,95529.34
2019-02-08T04:13:48.395Z,95530.00
2019-02-08T04:16:21.477Z,95523.20
2019-02-08T04:18:54.164Z,95521.02
2019-02-08T04:21:26.761Z,95523.59
2019-02-08T04:23:59.537Z,95533.55
2019-02-08T04:26:32.124Z,95534.09
2019-02-08T04:29:04.887Z,95523.55
2019-02-08T04:31:38.033Z,95519.81
2019-02-08T04:34:10.623Z,95528.53
2019-02-08T04:36:43.175Z,95531.56
2019-02-08T04:39:15.761Z,95527.02
2019-02-08T04:41:48.406Z,95535.92
2019-02-08T04:44:20.946Z,95533.31
2019-02-08T04:46:53.624Z,95524.33
2019-02-08T04:49:26.451Z,95522.36
2019-02-08T04:51:59.131Z,95523.05
2019-02-08T04:54:38.086Z,95527.86
2019-02-08T04:57:06.268Z,95517.88
2019-02-08T04:59:39.060Z,95516.31
2019-02-08T05:02:11.648Z,95509.66
2019-02-08T05:04:44.492Z,95508.42
2019-02-08T05:07:17.106Z,95511.00
2019-02-08T05:09:49.823Z,95508.22
2019-02-08T05:12:28.422Z,95513.41
2019-02-08T05:15:01.010Z,95518.28
2019-02-08T05:17:33.698Z,95523.22
2019-02-08T05:20:08.328Z,95524.55
2019-02-08T05:22:41.148Z,95527.59
2019-02-08T05:25:14.605Z,95515.79
2019-02-08T05:27:47.411Z,95514.12
2019-02-08T05:30:33.578Z,95524.02
2019-02-08T05:33:07.578Z,95514.08
2019-02-08T05:35:40.198Z,95510.49
2019-02-08T05:38:13.093Z,95505.58
2019-02-08T05:40:45.700Z,95513.22
2019-02-08T05:43:18.422Z,95516.65
2019-02-08T05:45:51.101Z,95510.63
2019-02-08T05:48:23.695Z,95516.83
2019-02-08T05:50:56.505Z,95521.61
2019-02-08T05:53:29.251Z,95530.95
2019-02-08T05:56:01.911Z,95532.44
2019-02-08T05:58:34.527Z,95528.87
2019-02-08T06:01:07.162Z,95534.77
2019-02-08T06:03:39.856Z,95530.73
2019-02-08T06:06:12.614Z,95522.23
2019-02-08T06:08:45.317Z,95528.89
2019-02-08T06:11:18.702Z,95522.98
2019-02-08T06:13:51.381Z,95525.17
2019-02-08T06:16:24.172Z,95526.89
2019-02-08T06:18:56.983Z,95530.15
2019-02-08T06:21:29.689Z,95525.36
2019-02-08T06:24:02.369Z,95528.88
2019-02-08T06:26:35.118Z,95526.45
2019-02-08T06:29:07.766Z,95529.01
2019-02-08T06:31:40.815Z,95523.02
2019-02-08T06:34:13.477Z,95520.45
2019-02-08T06:36:46.274Z,95517.45
2019-02-08T06:39:18.952Z,95521.38
2019-02-08T06:41:51.821Z,95521.25
2019-02-08T06:44:24.505Z,95521.50
2019-02-08T06:46:56.556Z,95517.20
2019-02-08T06:49:29.386Z,95517.78
2019-02-08T06:52:02.186Z,95532.19
2019-02-08T06:54:34.832Z,95528.13
2019-02-08T06:57:44.824Z,95530.36
2019-02-08T07:00:37.094Z,95524.77
2019-02-08T07:03:23.895Z,95534.55
2019-02-08T07:06:03.525Z,95530.78
2019-02-08T07:08:42.448Z,95526.90
2019-02-08T07:11:36.954Z,95539.12
2019-02-08T07:14:32.135Z,95535.62
2019-02-08T07:17:29.296Z,95535.98
2019-02-08T07:20:16.096Z,95543.78
2019-02-08T07:23:26.019Z,95534.64
2019-02-08T07:26:29.582Z,95529.41
2019-02-08T07:29:30.393Z,95530.75
2019-02-08T07:32:26.100Z,95525.08
2019-02-08T07:35:17.968Z,95530.73
2019-02-08T07:38:02.788Z,95532.39
2019-02-08T07:41:04.484Z,95538.05
2019-02-08T07:44:02.966Z,95535.22
2019-02-08T07:47:04.863Z,95543.34
2019-02-08T07:50:14.309Z,95538.52
2019-02-08T07:53:17.237Z,95530.77
2019-02-08T07:56:23.441Z,95533.67
2019-02-08T07:59:13.693Z,95535.09
2019-02-08T08:02:07.382Z,95538.42
2019-02-08T08:04:57.356Z,95539.98
2019-02-08T08:07:56.356Z,95537.19
2019-02-08T08:11:00.470Z,95538.71
2019-02-08T08:13:50.885Z,95538.03
2019-02-08T08:16:33.597Z,95533.55
2019-02-08T08:19:29.155Z,95529.84
2019-02-08T08:22:13.808Z,95531.30
2019-02-08T08:25:11.298Z,95529.61
2019-02-08T08:28:01.604Z,95528.05
2019-02-08T08:30:52.235Z,95534.16
2019-02-08T08:33:51.859Z,95527.31
2019-02-08T08:37:09.049Z,95518.38
2019-02-08T08:41:02.645Z,95519.10
2019-02-08T08:44:38.636Z,95512.34
2019-02-08T08:48:22.368Z,95513.10
2019-02-08T08:51:52.161Z,95511.06
2019-02-08T08:55:42.171Z,95506.09
2019-02-08T08:59:11.515Z,95507.27
2019-02-08T09:02:42.470Z,95505.67
2019-02-08T09:06:20.067Z,95498.82
2019-02-08T09:09:46.617Z,95497.60
2019-02-08T09:13:33.297Z,95496.41
2019-02-08T09:17:10.615Z,95487.52
2019-02-08T09:20:40.682Z,95488.32
2019-02-08T09:24:11.503Z,95487.19
2019-02-08T09:27:39.542Z,95483.88
2019-02-08T09:31:30.430Z,95481.36
2019-02-08T09:34:58.146Z,95482.48
2019-02-08T09:38:00.784Z,95477.44
2019-02-08T09:41:17.202Z,95480.31
2019-02-08T09:44:52.311Z,95475.73
2019-02-08T09:48:43.587Z,95467.12
2019-02-08T09:51:52.526Z,95465.07
2019-02-08T09:55:10.794Z,95458.86
2019-02-08T09:58:18.157Z,95460.84
2019-02-08T10:01:42.227Z,95453.31
2019-02-08T10:05:31.905Z,95445.55
2019-02-08T10:08:55.603Z,95432.92
2019-02-08T10:12:32.398Z,95427.89
2019-02-08T10:16:16.748Z,95419.70
2019-02-08T10:19:50.584Z,95421.52
2019-02-08T10:23:26.404Z,95415.88
2019-02-08T10:26:41.683Z,95418.41
2019-02-08T10:30:25.472Z,95423.80
2019-02-08T10:33:43.002Z,95417.31
2019-02-08T10:37:03.964Z,95414.34
2019-02-08T10:40:21.960Z,95403.59
2019-02-08T10:44:05.838Z,95408.73
2019-02-08T10:47:53.681Z,95409.94
2019-02-08T10:51:23.499Z,95404.65
2019-02-08T10:55:02.565Z,95396.77
2019-02-08T10:58:33.310Z,95388.30
2019-02-08T11:02:31.605Z,95375.70
2019-02-08T11:06:11.874Z,95374.61
2019-02-08T11:09:52.286Z,95364.45
2019-02-08T11:13:31.462Z,95365.49
2019-02-08T11:17:20.343Z,95362.09
2019-02-08T11:19:57.888Z,95359.33
2019-02-08T11:22:30.655Z,95365.95
2019-02-08T11:25:07.757Z,95362.72
2019-02-08T11:27:40.499Z,95355.05
2019-02-08T11:30:16.998Z,95347.38
2019-02-08T11:32:49.679Z,95341.73
2019-02-08T11:35:22.375Z,95329.45
2019-02-08T11:37:55.212Z,95331.86
2019-02-08T11:40:30.389Z,95328.30
2019-02-08T11:43:03.141Z,95326.46
2019-02-08T11:45:35.884Z,95323.02
2019-02-08T11:48:09.039Z,95317.91
2019-02-08T11:50:41.816Z,95316.44
2019-02-08T11:53:14.700Z,95310.21
2019-02-08T11:55:48.814Z,95299.27
2019-02-08T11:58:21.485Z,95299.36
2019-02-08T12:00:56.041Z,95290.16
2019-02-08T12:03:28.849Z,95291.08
2019-02-08T12:06:01.603Z,95289.05
2019-02-08T12:08:34.477Z,95272.50
2019-02-08T12:11:07.143Z,95275.80
2019-02-08T12:13:39.970Z,95267.80
2019-02-08T12:16:12.950Z,95257.12
2019-02-08T12:18:45.642Z,95257.09
2019-02-08T12:21:18.422Z,95242.39
2019-02-08T12:23:51.268Z,95243.30
2019-02-08T12:26:23.872Z,95247.36
2019-02-08T12:28:56.698Z,95247.71
2019-02-08T12:31:29.428Z,95239.08
2019-02-08T12:34:02.155Z,95238.11
2019-02-08T12:36:35.037Z,95233.08
2019-02-08T12:39:14.568Z,95236.73
2019-02-08T12:41:47.211Z,95235.58
2019-02-08T12:44:19.968Z,95229.10
2019-02-08T12:46:52.656Z,95227.80
2019-02-08T12:49:25.365Z,95225.17
2019-02-08T12:51:58.078Z,95227.31
2019-02-08T12:54:30.808Z,95220.06
2019-02-08T12:57:04.483Z,95226.16
2019-02-08T12:59:37.279Z,95221.94
2019-02-08T13:02:10.250Z,95218.83
2019-02-08T13:04:42.893Z,95222.91
2019-02-08T13:07:15.778Z,95220.04
2019-02-08T13:09:48.436Z,95211.09
2019-02-08T13:12:21.683Z,95217.73
2019-02-08T13:14:54.343Z,95211.91
2019-02-08T13:17:27.329Z,95201.55
2019-02-08T13:20:00.033Z,95204.98
2019-02-08T13:22:32.704Z,95199.28
2019-02-08T13:25:06.142Z,95192.71
2019-02-08T13:27:38.841Z,95185.78
2019-02-08T13:30:22.058Z,95184.77
2019-02-08T13:32:54.931Z,95197.87
2019-02-08T13:35:28.395Z,95184.56
2019-02-08T13:38:01.541Z,95172.80
2019-02-08T13:40:34.367Z,95160.75
2019-02-08T13:43:06.950Z,95157.18
2019-02-08T13:45:39.627Z,95152.78
2019-02-08T13:48:12.538Z,95140.64
2019-02-08T13:50:45.272Z,95143.23
2019-02-08T13:53:18.039Z,95128.26
2019-02-08T13:55:50.825Z,95125.52
2019-02-08T13:58:23.570Z,95117.27
2019-02-08T14:00:57.716Z,95118.17
2019-02-08T14:03:30.462Z,95117.11
2019-02-08T14:06:03.258Z,95107.45
2019-02-08T14:08:36.158Z,95106.70
2019-02-08T14:11:08.876Z,95106.89
2019-02-08T14:13:41.645Z,95107.89
2019-02-08T14:16:14.535Z,95097.79
2019-02-08T14:18:50.106Z,95091.37
2019-02-08T14:21:22.816Z,95087.24
2019-02-08T14:23:55.427Z,95091.32
2019-02-08T14:26:28.254Z,95092.36
2019-02-08T14:29:01.116Z,95093.23
2019-02-08T14:31:33.838Z,95091.05
2019-02-08T14:34:07.355Z,95081.25
2019-02-08T14:36:40.100Z,95087.41
2019-02-08T14:39:13.154Z,95080.50
2019-02-08T14:41:45.887Z,95086.31
2019-02-08T14:44:18.755Z,95084.42
2019-02-08T14:46:51.402Z,95086.75
2019-02-08T14:49:24.139Z,95091.80
2019-02-08T14:51:56.885Z,95082.38
2019-02-08T14:54:29.561Z,95075.78
2019-02-08T14:57:02.387Z,95066.69
2019-02-08T14:59:35.339Z,95062.91
2019-02-08T15:02:08.012Z,95062.11
2019-02-08T15:04:40.952Z,95041.33
2019-02-08T15:07:13.537Z,95045.36
2019-02-08T15:09:46.363Z,95048.95
2019-02-08T15:12:18.572Z,95052.94
2019-02-08T15:14:51.218Z,95045.92
2019-02-08T15:17:23.856Z,95034.50
2019-02-08T15:19:57.895Z,95030.86
2019-02-08T15:22:30.574Z,95018.42
2019-02-08T15:25:03.853Z,95010.11
2019-02-08T15:27:36.507Z,94995.56
2019-02-08T15:30:12.131Z,94986.95
2019-02-08T15:32:44.780Z,94989.00
2019-02-08T15:35:20.044Z,94981.59
2019-02-08T15:37:52.679Z,94977.04
2019-02-08T15:40:45.039Z,94975.84
2019-02-08T15:43:20.033Z,94985.94
2019-02-08T15:45:59.575Z,94986.95
2019-02-08T15:48:32.286Z,94993.14
2019-02-08T15:51:05.319Z,94992.15
2019-02-08T15:53:37.884Z,94993.13
2019-02-08T15:56:15.129Z,95005.94
2019-02-08T15:58:47.872Z,94998.07
2019-02-08T16:01:21.205Z,94990.48
2019-02-08T16:03:53.939Z,94990.59
2019-02-08T16:06:26.696Z,94989.19
2019-02-08T16:08:59.447Z,94978.08
2019-02-08T16:11:32.087Z,94983.28
2019-02-08T16:14:05.327Z,94989.67
2019-02-08T16:16:38.307Z,94988.92
2019-02-08T16:19:11.566Z,94997.80
2019-02-08T16:21:44.210Z,95001.36
2019-02-08T16:24:16.889Z,94993.94
2019-02-08T16:26:49.567Z,94996.67
2019-02-08T16:29:22.718Z,94993.59
2019-02-08T16:31:55.416Z,94988.90
2019-02-08T16:34:28.108Z,94980.51
2019-02-08T16:37:03.542Z,94980.50
2019-02-08T16:39:35.072Z,94970.48
2019-02-08T16:42:08.024Z,94973.70
2019-02-08T16:44:40.896Z,94955.20
2019-02-08T16:47:13.481Z,94955.87
2019-02-08T16:49:46.115Z,94959.05
2019-02-08T16:52:18.692Z,94952.05
2019-02-08T16:54:51.355Z,94949.73
2019-02-08T16:57:24.120Z,94949.67
2019-02-08T16:59:56.703Z,94957.70
2019-02-08T17:02:29.479Z,94941.84
2019-02-08T17:05:02.212Z,94946.84
2019-02-08T17:07:34.770Z,94944.59
2019-02-08T17:10:10.442Z,94946.56
2019-02-08T17:12:43.023Z,94947.49
2019-02-08T17:15:20.134Z,94945.66
2019-02-08T17:17:52.771Z,94936.14
2019-02-08T17:20:31.771Z,94944.55
2019-02-08T17:23:04.758Z,94951.62
2019-02-08T17:25:37.427Z,94948.73
2019-02-08T17:28:11.700Z,94951.69
2019-02-08T17:30:44.330Z,94943.37
2019-02-08T17:33:16.892Z,94939.53
2019-02-08T17:35:50.345Z,94936.98
2019-02-08T17:38:23.001Z,94940.20
2019-02-08T17:40:55.693Z,94924.95
2019-02-08T17:43:28.271Z,94943.18
2019-02-08T17:46:00.980Z,94943.04
2019-02-08T17:48:33.568Z,94939.11
2019-02-08T17:51:06.505Z,94935.72
2019-02-08T17:53:39.187Z,94949.00
2019-02-08T17:56:11.923Z,94947.67
2019-02-08T17:58:44.513Z,94949.91
2019-02-08T18:01:17.118Z,94951.23
2019-02-08T18:03:49.688Z,94957.08
2019-02-08T18:06:22.291Z,94958.38
2019-02-08T18:08:54.900Z,94953.50
2019-02-08T18:11:27.573Z,94953.30
2019-02-08T18:14:00.160Z,94954.58
2019-02-08T18:16:32.965Z,94962.83
2019-02-08T18:19:05.775Z,94956.28
2019-02-08T18:21:38.524Z,94957.08
2019-02-08T18:24:11.486Z,94951.93
2019-02-08T18:26:44.132Z,94953.66
2019-02-08T18:29:18.614Z,94956.55
2019-02-08T18:31:51.683Z,94962.53
2019-02-08T18:34:24.429Z,94960.28
2019-02-08T18:36:57.116Z,94965.36
2019-02-08T18:39:29.784Z,94961.73
2019-02-08T18:42:02.563Z,94960.69
2019-02-08T18:44:35.113Z,94956.14
2019-02-08T18:47:07.737Z,94956.98
2019-02-08T18:49:40.576Z,94953.41
2019-02-08T18:52:13.244Z,94950.55
2019-02-08T18:54:45.937Z,94955.95
2019-02-08T18:57:18.575Z,94947.83
2019-02-08T18:59:51.297Z,94952.28
2019-02-08T19:02:23.948Z,94941.70
2019-02-08T19:04:56.552Z,94944.42
2019-02-08T19:07:29.185Z,94938.93
2019-02-08T19:10:01.782Z,94932.31
2019-02-08T19:12:33.581Z,94934.17
2019-02-08T19:15:08.301Z,94935.56
2019-02-08T19:17:41.033Z,94928.19
2019-02-08T19:20:16.506Z,94927.98
2019-02-08T19:22:49.175Z,94930.05
2019-02-08T19:25:25.941Z,94923.69
2019-02-08T19:27:58.633Z,94920.00
2019-02-08T19:30:34.725Z,94918.99
2019-02-08T19:33:08.131Z,94908.87
2019-02-08T19:35:40.826Z,94910.41
2019-02-08T19:38:13.477Z,94908.63
2019-02-08T19:40:47.191Z,94908.63
2019-02-08T19:43:19.893Z,94906.05
2019-02-08T19:45:52.490Z,94909.28
2019-02-08T19:48:25.225Z,94904.21
2019-02-08T19:50:57.842Z,94906.00
2019-02-08T19:53:30.547Z,94895.45
2019-02-08T19:56:03.256Z,94895.70
2019-02-08T19:58:35.970Z,94893.79
2019-02-08T20:01:08.704Z,94893.18
2019-02-08T20:03:41.396Z,94887.57
2019-02-08T20:06:14.209Z,94885.82
2019-02-08T20:08:47.746Z,94879.84
2019-02-08T20:11:20.408Z,94872.73
2019-02-08T20:13:53.053Z,94872.44
2019-02-08T20:16:25.805Z,94877.28
2019-02-08T20:18:58.802Z,94861.96
2019-02-08T20:21:31.568Z,94877.59
2019-02-08T20:24:04.367Z,94868.67
2019-02-08T20:26:36.936Z,94874.19
2019-02-08T20:29:09.541Z,94870.91
2019-02-08T20:31:42.244Z,94871.56
2019-02-08T20:34:15.059Z,94875.53
2019-02-08T20:36:47.882Z,94870.58
2019-02-08T20:39:20.592Z,94881.57
2019-02-08T20:41:53.316Z,94882.52
2019-02-08T20:44:25.939Z,94883.52
2019-02-08T20:46:58.683Z,94884.63
2019-02-08T20:49:31.331Z,94892.84
2019-02-08T20:52:03.989Z,94892.52
2019-02-08T20:54:36.542Z,94892.51
2019-02-08T20:57:09.546Z,94894.75
2019-02-08T20:59:42.225Z,94884.23
2019-02-08T21:02:15.162Z,94888.23
2019-02-08T21:04:47.909Z,94873.98
2019-02-08T21:07:20.569Z,94869.56
2019-02-08T21:09:53.252Z,94865.95
2019-02-08T21:12:25.806Z,94864.17
2019-02-08T21:14:58.401Z,94857.84
2019-02-08T21:17:31.170Z,94856.34
2019-02-08T21:20:04.319Z,94854.67
2019-02-08T21:22:37.018Z,94852.27
2019-02-08T21:25:11.880Z,94854.63
2019-02-08T21:27:44.530Z,94866.40
2019-02-08T21:30:18.106Z,94850.58
2019-02-08T21:32:51.892Z,94856.39
2019-02-08T21:35:24.840Z,94853.98
2019-02-08T21:37:57.437Z,94870.30
2019-02-08T21:40:30.207Z,94872.41
2019-02-08T21:43:02.828Z,94866.92
2019-02-08T21:45:36.466Z,94862.27
2019-02-08T21:48:10.852Z,94864.85
2019-02-08T21:50:43.920Z,94871.31
2019-02-08T21:53:16.692Z,94860.00
2019-02-08T21:55:49.419Z,94854.38
2019-02-08T21:58:22.062Z,94859.75
2019-02-08T22:00:54.674Z,94854.75
2019-02-08T22:03:27.226Z,94850.94
2019-02-08T22:06:07.343Z,94862.08
2019-02-08T22:08:39.982Z,94867.06
2019-02-08T22:11:12.694Z,94868.65
2019-02-08T22:13:45.446Z,94866.48
2019-02-08T22:16:18.182Z,94868.92
2019-02-08T22:18:50.769Z,94865.87
2019-02-08T22:21:23.361Z,94849.58
2019-02-08T22:23:55.895Z,94843.02
2019-02-08T22:26:28.546Z,94851.09
2019-02-08T22:29:01.365Z,94832.78
2019-02-08T22:31:34.146Z,94838.53
2019-02-08T22:34:06.950Z,94852.27
2019-02-08T22:36:39.635Z,94847.49
2019-02-08T22:39:12.356Z,94849.45
2019-02-08T22:41:44.943Z,94855.57
2019-02-08T22:44:17.526Z,94850.73
2019-02-08T22:46:50.276Z,94864.68
2019-02-08T22:49:22.834Z,94860.20
2019-02-08T22:51:55.450Z,94857.68
2019-02-08T22:54:28.034Z,94856.26
2019-02-08T22:57:00.808Z,94859.50
2019-02-08T22:59:33.582Z,94838.30
2019-02-08T23:02:08.731Z,94831.18
2019-02-08T23:04:41.511Z,94835.23
2019-02-08T23:07:14.147Z,94814.45
2019-02-08T23:09:46.789Z,94812.56
2019-02-08T23:12:19.471Z,94806.78
2019-02-08T23:14:52.455Z,94799.65
2019-02-08T23:17:25.144Z,94787.48
2019-02-08T23:19:58.061Z,94775.04
2019-02-08T23:22:30.853Z,94797.07
2019-02-08T23:25:03.657Z,94796.95
2019-02-08T23:27:36.385Z,94798.42
2019-02-08T23:30:11.567Z,94791.59
2019-02-08T23:32:44.349Z,94791.16
2019-02-08T23:35:17.244Z,94786.65
2019-02-08T23:37:50.011Z,94782.17
2019-02-08T23:40:22.721Z,94789.83
2019-02-08T23:42:55.456Z,94782.37
2019-02-08T23:45:28.442Z,94789.05
2019-02-08T23:48:01.241Z,94773.00
2019-02-08T23:50:33.946Z,94754.75
2019-02-08T23:53:09.749Z,94759.56
2019-02-08T23:55:42.720Z,94763.09
2019-02-08T23:58:15.410Z,94754.05
